createdAt,value
2017-11-26T00:01:18.620Z,40.90
2017-11-26T00:03:46.935Z,47.53
2017-11-26T00:06:16.010Z,39.53
2017-11-26T00:08:44.553Z,40.93
2017-11-26T00:11:12.890Z,45.83
2017-11-26T00:13:41.974Z,44.13
2017-11-26T00:16:10.295Z,40.60
2017-11-26T00:18:38.620Z,38.63
2017-11-26T00:21:06.930Z,45.13
2017-11-26T00:23:35.256Z,44.50
2017-11-26T00:26:03.559Z,41.53
2017-11-26T00:28:31.994Z,42.67
2017-11-26T00:31:00.308Z,43.73
2017-11-26T00:33:28.623Z,43.80
2017-11-26T00:35:57.032Z,38.83
2017-11-26T00:38:25.351Z,40.80
2017-11-26T00:40:53.690Z,38.80
2017-11-26T00:43:22.060Z,37.60
2017-11-26T00:45:50.391Z,39.03
2017-11-26T00:48:18.751Z,34.27
2017-11-26T00:50:47.179Z,41.13
2017-11-26T00:53:15.564Z,36.80
2017-11-26T00:55:43.886Z,35.60
2017-11-26T00:58:12.275Z,40.73
2017-11-26T01:00:40.696Z,37.57
2017-11-26T01:03:09.091Z,40.63
2017-11-26T01:05:37.502Z,36.20
2017-11-26T01:08:05.812Z,39.60
2017-11-26T01:10:34.963Z,32.87
2017-11-26T01:13:03.331Z,33.93
2017-11-26T01:15:31.709Z,29.30
2017-11-26T01:18:00.064Z,32.30
2017-11-26T01:20:28.452Z,29.87
2017-11-26T01:22:56.941Z,27.90
2017-11-26T01:25:25.504Z,26.80
2017-11-26T01:27:53.878Z,26.00
2017-11-26T01:30:23.088Z,27.50
2017-11-26T01:32:51.396Z,33.87
2017-11-26T01:35:19.755Z,31.17
2017-11-26T01:37:48.163Z,26.47
2017-11-26T01:40:16.568Z,31.50
2017-11-26T01:42:44.992Z,27.63
2017-11-26T01:45:13.367Z,31.60
2017-11-26T01:47:41.717Z,28.77
2017-11-26T01:50:10.904Z,33.10
2017-11-26T01:52:39.300Z,33.00
2017-11-26T01:55:08.507Z,34.03
2017-11-26T01:57:36.813Z,27.43
2017-11-26T02:00:05.141Z,30.33
2017-11-26T02:02:34.218Z,24.30
2017-11-26T02:05:02.534Z,30.37
2017-11-26T02:07:31.606Z,27.53
2017-11-26T02:09:59.924Z,31.00
2017-11-26T02:12:28.288Z,26.60
2017-11-26T02:14:56.620Z,23.60
2017-11-26T02:17:24.939Z,31.20
2017-11-26T02:19:54.086Z,23.63
2017-11-26T02:22:22.388Z,23.80
2017-11-26T02:24:50.764Z,26.73
2017-11-26T02:27:19.159Z,31.13
2017-11-26T02:29:48.267Z,23.30
2017-11-26T02:32:34.544Z,20.60
2017-11-26T02:35:21.368Z,21.33
2017-11-26T02:37:50.452Z,25.93
2017-11-26T02:40:19.536Z,21.70
2017-11-26T02:42:47.909Z,24.80
2017-11-26T02:45:16.220Z,22.53
2017-11-26T02:47:45.362Z,25.53
2017-11-26T02:50:13.695Z,21.60
2017-11-26T02:52:42.018Z,28.60
2017-11-26T02:55:10.329Z,22.43
2017-11-26T02:57:39.420Z,23.23
2017-11-26T03:00:07.751Z,22.83
2017-11-26T03:02:36.057Z,15.67
2017-11-26T03:05:04.375Z,14.50
2017-11-26T03:07:33.470Z,19.73
2017-11-26T03:10:01.791Z,13.23
2017-11-26T03:12:30.107Z,17.20
2017-11-26T03:14:59.192Z,14.63
2017-11-26T03:17:27.531Z,17.93
2017-11-26T03:19:55.851Z,16.57
2017-11-26T03:22:24.167Z,12.70
2017-11-26T03:24:52.508Z,19.90
2017-11-26T03:27:20.858Z,14.17
2017-11-26T03:29:49.209Z,12.93
2017-11-26T03:32:17.542Z,13.40
2017-11-26T03:34:45.878Z,15.43
2017-11-26T03:37:14.203Z,13.93
2017-11-26T03:39:43.337Z,24.53
2017-11-26T03:42:11.679Z,17.33
2017-11-26T03:44:40.805Z,18.20
2017-11-26T03:47:09.135Z,19.53
2017-11-26T03:49:37.489Z,14.90
2017-11-26T03:52:05.806Z,17.67
2017-11-26T03:54:34.955Z,14.43
2017-11-26T03:57:03.320Z,15.27
2017-11-26T03:59:31.631Z,13.37
2017-11-26T04:01:59.975Z,16.50
2017-11-26T04:04:28.321Z,12.43
2017-11-26T04:06:57.405Z,13.13
2017-11-26T04:09:25.719Z,14.73
2017-11-26T04:11:54.031Z,11.70
2017-11-26T04:14:22.338Z,11.70
2017-11-26T04:16:51.476Z,16.43
2017-11-26T04:19:19.785Z,15.77
2017-11-26T04:21:48.123Z,12.83
2017-11-26T04:24:16.426Z,10.07
2017-11-26T04:26:44.740Z,10.40
2017-11-26T04:29:13.064Z,10.27
2017-11-26T04:31:41.386Z,14.90
2017-11-26T04:34:09.695Z,10.93
2017-11-26T04:36:38.016Z,19.07
2017-11-26T04:39:06.357Z,17.47
2017-11-26T04:41:34.691Z,12.60
2017-11-26T04:44:02.990Z,10.70
2017-11-26T04:46:31.297Z,9.93
2017-11-26T04:48:59.599Z,9.50
2017-11-26T04:51:27.932Z,10.23
2017-11-26T04:53:56.995Z,9.67
2017-11-26T04:56:25.311Z,13.97
2017-11-26T04:58:54.423Z,11.90
2017-11-26T05:01:22.730Z,9.90
2017-11-26T05:03:51.039Z,12.67
2017-11-26T05:06:20.606Z,11.40
2017-11-26T05:08:48.934Z,11.90
2017-11-26T05:11:18.013Z,12.77
2017-11-26T05:13:51.239Z,12.03
2017-11-26T05:16:19.561Z,9.30
2017-11-26T05:18:47.882Z,10.47
2017-11-26T05:21:16.959Z,10.70
2017-11-26T05:23:45.295Z,11.77
2017-11-26T05:26:13.606Z,13.93
2017-11-26T05:28:41.930Z,13.13
2017-11-26T05:31:10.263Z,14.90
2017-11-26T05:33:38.577Z,12.17
2017-11-26T05:36:06.879Z,9.67
2017-11-26T05:38:35.207Z,12.60
2017-11-26T05:41:03.522Z,12.67
2017-11-26T05:43:31.844Z,11.23
2017-11-26T05:46:00.159Z,13.83
2017-11-26T05:48:28.470Z,16.00
2017-11-26T05:50:56.807Z,12.90
2017-11-26T05:53:25.887Z,13.93
2017-11-26T05:55:54.970Z,15.93
2017-11-26T05:58:23.291Z,10.60
2017-11-26T06:00:51.649Z,19.10
2017-11-26T06:03:19.979Z,14.57
2017-11-26T06:05:48.303Z,14.80
2017-11-26T06:08:16.607Z,14.67
2017-11-26T06:10:44.898Z,11.83
2017-11-26T06:13:13.217Z,17.20
2017-11-26T06:15:41.527Z,16.70
2017-11-26T06:18:09.847Z,13.13
2017-11-26T06:20:38.159Z,14.10
2017-11-26T06:23:07.245Z,20.93
2017-11-26T06:25:36.325Z,12.27
2017-11-26T06:28:04.640Z,14.73
2017-11-26T06:30:33.712Z,17.87
2017-11-26T06:33:02.035Z,13.90
2017-11-26T06:35:30.342Z,16.37
2017-11-26T06:37:58.654Z,22.27
2017-11-26T06:40:27.715Z,11.27
2017-11-26T06:42:56.049Z,17.43
2017-11-26T06:45:24.357Z,12.63
2017-11-26T06:47:52.675Z,15.70
2017-11-26T06:50:20.979Z,21.53
2017-11-26T06:52:49.303Z,14.30
2017-11-26T06:55:18.372Z,16.40
2017-11-26T06:57:46.690Z,20.90
2017-11-26T07:00:15.003Z,15.40
2017-11-26T07:02:43.311Z,17.63
2017-11-26T07:05:11.632Z,14.33
2017-11-26T07:07:39.963Z,14.17
2017-11-26T07:10:08.281Z,16.20
2017-11-26T07:12:36.601Z,15.60
2017-11-26T07:15:04.930Z,12.40
2017-11-26T07:17:33.269Z,19.30
2017-11-26T07:20:01.580Z,12.43
2017-11-26T07:22:29.928Z,15.20
2017-11-26T07:24:58.239Z,14.13
2017-11-26T07:27:26.555Z,14.50
2017-11-26T07:29:54.865Z,15.57
2017-11-26T07:32:23.181Z,13.83
2017-11-26T07:34:51.512Z,13.30
2017-11-26T07:37:19.838Z,16.90
2017-11-26T07:39:48.932Z,15.10
2017-11-26T07:42:17.256Z,13.97
2017-11-26T07:44:45.556Z,14.57
2017-11-26T07:47:13.862Z,12.83
2017-11-26T07:49:42.183Z,12.83
2017-11-26T07:52:10.487Z,17.97
2017-11-26T07:54:38.803Z,17.07
2017-11-26T07:57:07.906Z,17.03
2017-11-26T07:59:36.989Z,13.13
2017-11-26T08:02:06.063Z,15.70
2017-11-26T08:04:34.378Z,14.27
2017-11-26T08:07:03.450Z,13.40
2017-11-26T08:09:31.774Z,13.33
2017-11-26T08:12:00.065Z,13.80
2017-11-26T08:14:28.370Z,13.83
2017-11-26T08:16:56.677Z,12.00
2017-11-26T08:19:25.759Z,14.57
2017-11-26T08:21:54.061Z,11.83
2017-11-26T08:24:22.401Z,23.33
2017-11-26T08:26:50.723Z,14.93
2017-11-26T08:29:19.043Z,12.63
2017-11-26T08:31:47.350Z,17.03
2017-11-26T08:34:16.447Z,14.20
2017-11-26T08:36:44.775Z,10.67
2017-11-26T08:39:13.087Z,14.77
2017-11-26T08:41:41.405Z,9.87
2017-11-26T08:44:09.714Z,12.70
2017-11-26T08:46:38.027Z,14.17
2017-11-26T08:49:06.349Z,11.90
2017-11-26T08:51:34.671Z,11.57
2017-11-26T08:54:02.983Z,11.20
2017-11-26T08:56:31.296Z,9.47
2017-11-26T08:58:59.605Z,11.30
2017-11-26T09:01:27.951Z,9.73
2017-11-26T09:03:56.283Z,9.73
2017-11-26T09:06:35.350Z,12.73
2017-11-26T09:09:03.672Z,10.57
2017-11-26T09:11:31.975Z,10.43
2017-11-26T09:14:00.290Z,15.90
2017-11-26T09:16:28.593Z,10.50
2017-11-26T09:18:56.911Z,13.90
2017-11-26T09:21:25.238Z,12.83
2017-11-26T09:23:53.541Z,15.57
2017-11-26T09:26:21.838Z,17.20
2017-11-26T09:28:50.914Z,10.73
2017-11-26T09:31:19.980Z,15.23
2017-11-26T09:33:48.286Z,14.97
2017-11-26T09:36:17.358Z,12.13
2017-11-26T09:38:45.663Z,10.33
2017-11-26T09:41:14.735Z,15.07
2017-11-26T09:43:43.115Z,12.20
2017-11-26T09:46:11.418Z,12.00
2017-11-26T09:48:40.502Z,12.10
2017-11-26T09:51:09.590Z,12.63
2017-11-26T09:53:37.903Z,9.97
2017-11-26T09:58:41.529Z,10.00
2017-11-26T10:01:09.846Z,9.90
2017-11-26T10:03:38.190Z,11.00
2017-11-26T10:06:06.492Z,5.37
2017-11-26T10:08:34.818Z,6.70
2017-11-26T10:11:03.890Z,8.20
2017-11-26T10:13:32.195Z,8.40
2017-11-26T10:16:01.267Z,6.10
2017-11-26T10:18:30.361Z,9.63
2017-11-26T10:20:58.707Z,5.80
2017-11-26T10:23:26.996Z,6.95
2017-11-26T10:25:55.302Z,7.47
2017-11-26T10:28:24.366Z,9.57
2017-11-26T10:30:52.686Z,8.13
2017-11-26T10:33:20.998Z,8.13
2017-11-26T10:35:49.335Z,8.83
2017-11-26T10:38:18.458Z,9.57
2017-11-26T10:40:47.499Z,6.50
2017-11-26T10:43:15.822Z,7.90
2017-11-26T10:45:44.117Z,6.37
2017-11-26T10:48:12.426Z,9.60
2017-11-26T10:50:40.726Z,8.13
2017-11-26T10:53:09.799Z,8.27
2017-11-26T10:55:38.102Z,7.03
2017-11-26T10:58:07.171Z,7.30
2017-11-26T11:00:35.494Z,11.70
2017-11-26T11:03:03.804Z,8.47
2017-11-26T11:05:32.099Z,7.17
2017-11-26T11:08:00.447Z,5.77
2017-11-26T11:10:28.754Z,9.40
2017-11-26T11:12:57.086Z,7.73
2017-11-26T11:15:25.378Z,5.30
2017-11-26T11:17:53.691Z,6.77
2017-11-26T11:20:21.998Z,9.27
2017-11-26T11:22:50.302Z,5.70
2017-11-26T11:25:19.935Z,3.87
2017-11-26T11:27:48.228Z,3.77
2017-11-26T11:30:16.566Z,5.83
2017-11-26T11:32:44.915Z,5.83
2017-11-26T11:35:13.222Z,11.10
2017-11-26T11:37:41.559Z,10.67
2017-11-26T11:40:10.634Z,7.30
2017-11-26T11:42:38.981Z,10.30
2017-11-26T11:45:07.290Z,12.30
2017-11-26T11:47:35.598Z,8.20
2017-11-26T11:50:04.760Z,7.10
2017-11-26T11:52:33.737Z,6.00
2017-11-26T11:55:02.197Z,9.27
2017-11-26T11:57:30.541Z,7.53
2017-11-26T11:59:59.656Z,6.77
2017-11-26T12:02:28.758Z,6.97
2017-11-26T12:04:57.134Z,3.47
2017-11-26T12:07:25.511Z,8.10
2017-11-26T12:09:53.993Z,8.03
2017-11-26T12:12:22.397Z,6.30
2017-11-26T12:14:50.849Z,10.00
2017-11-26T12:17:19.189Z,3.10
2017-11-26T12:19:47.531Z,6.80
2017-11-26T12:22:15.885Z,4.50
2017-11-26T12:24:44.258Z,4.57
2017-11-26T12:27:12.635Z,11.30
2017-11-26T12:29:41.115Z,4.93
2017-11-26T12:32:10.209Z,3.03
2017-11-26T12:34:38.600Z,8.57
2017-11-26T12:37:07.016Z,7.10
2017-11-26T12:39:35.343Z,4.50
2017-11-26T12:42:04.530Z,3.87
2017-11-26T12:44:33.735Z,2.80
2017-11-26T12:47:02.055Z,7.60
2017-11-26T12:49:30.409Z,7.13
2017-11-26T12:51:58.781Z,7.90
2017-11-26T12:54:27.189Z,6.73
2017-11-26T12:56:55.501Z,5.90
2017-11-26T12:59:23.839Z,5.40
2017-11-26T13:01:52.220Z,5.40
2017-11-26T13:04:20.549Z,8.30
2017-11-26T13:06:49.696Z,5.03
2017-11-26T13:09:18.072Z,4.93
2017-11-26T13:11:46.385Z,4.53
2017-11-26T13:14:14.817Z,9.73
2017-11-26T13:16:43.128Z,8.77
2017-11-26T13:19:11.460Z,5.87
2017-11-26T13:21:39.823Z,6.53
2017-11-26T13:24:08.891Z,4.33
2017-11-26T13:26:37.211Z,7.07
2017-11-26T13:29:05.512Z,2.90
2017-11-26T13:31:33.842Z,4.27
2017-11-26T13:34:02.943Z,3.57
2017-11-26T13:36:31.277Z,3.27
2017-11-26T13:38:59.592Z,2.80
2017-11-26T13:41:28.690Z,3.43
2017-11-26T13:43:57.763Z,2.70
2017-11-26T13:46:26.089Z,3.50
2017-11-26T13:48:54.431Z,3.83
2017-11-26T13:51:22.750Z,2.90
2017-11-26T13:53:51.059Z,4.73
2017-11-26T13:56:19.406Z,3.13
2017-11-26T13:58:47.714Z,3.40
2017-11-26T14:01:16.183Z,3.90
2017-11-26T14:03:44.530Z,4.17
2017-11-26T14:06:12.870Z,2.67
2017-11-26T14:08:41.187Z,4.17
2017-11-26T14:11:09.503Z,4.50
2017-11-26T14:13:37.843Z,3.83
2017-11-26T14:16:06.210Z,2.57
2017-11-26T14:18:35.286Z,3.10
2017-11-26T14:21:03.598Z,5.50
2017-11-26T14:23:31.902Z,2.93
2017-11-26T14:26:00.218Z,2.90
2017-11-26T14:28:29.295Z,6.33
2017-11-26T14:30:57.626Z,5.13
2017-11-26T14:33:26.003Z,4.90
2017-11-26T14:35:54.311Z,5.03
2017-11-26T14:38:22.643Z,6.10
2017-11-26T14:40:50.982Z,5.77
2017-11-26T14:43:19.312Z,4.90
2017-11-26T14:45:47.619Z,4.63
2017-11-26T14:48:15.920Z,4.90
2017-11-26T14:50:44.245Z,6.67
2017-11-26T14:53:12.543Z,3.10
2017-11-26T14:55:40.900Z,3.90
2017-11-26T14:58:09.235Z,6.10
2017-11-26T15:00:37.572Z,4.50
2017-11-26T15:03:05.884Z,8.00
2017-11-26T15:05:34.203Z,5.93
2017-11-26T15:08:02.547Z,6.33
2017-11-26T15:10:30.927Z,14.00
2017-11-26T15:12:59.254Z,10.40
2017-11-26T15:15:27.583Z,5.73
2017-11-26T15:17:56.383Z,4.90
2017-11-26T15:20:25.517Z,7.10
2017-11-26T15:22:53.839Z,9.43
2017-11-26T15:25:22.175Z,10.00
2017-11-26T15:27:50.495Z,5.20
2017-11-26T15:30:18.837Z,7.70
2017-11-26T15:32:47.181Z,4.40
2017-11-26T15:35:16.295Z,4.07
2017-11-26T15:37:44.647Z,10.43
2017-11-26T15:40:13.718Z,3.90
2017-11-26T15:42:42.048Z,3.70
2017-11-26T15:45:10.346Z,11.43
2017-11-26T15:47:38.712Z,5.93
2017-11-26T15:50:07.064Z,4.87
2017-11-26T15:52:35.382Z,4.40
2017-11-26T15:55:03.742Z,6.60
2017-11-26T15:57:32.039Z,4.60
2017-11-26T16:00:00.365Z,4.00
2017-11-26T16:02:29.486Z,3.83
2017-11-26T16:04:57.800Z,4.40
2017-11-26T16:07:26.116Z,4.17
2017-11-26T16:09:55.217Z,3.60
2017-11-26T16:12:24.311Z,2.83
2017-11-26T16:14:53.384Z,2.93
2017-11-26T16:17:21.714Z,5.93
2017-11-26T16:19:50.851Z,6.70
2017-11-26T16:22:19.151Z,5.03
2017-11-26T16:24:48.252Z,5.57
2017-11-26T16:27:17.318Z,4.90
2017-11-26T16:29:45.642Z,6.67
2017-11-26T16:32:14.114Z,7.27
2017-11-26T16:34:42.432Z,4.97
2017-11-26T16:37:11.057Z,7.23
2017-11-26T16:39:40.130Z,9.50
2017-11-26T16:42:08.478Z,8.93
2017-11-26T16:44:36.802Z,8.63
2017-11-26T16:47:05.121Z,10.73
2017-11-26T16:49:33.468Z,5.90
2017-11-26T16:52:02.612Z,6.73
2017-11-26T16:54:30.933Z,5.00
2017-11-26T16:56:59.239Z,8.00
2017-11-26T16:59:27.550Z,10.50
2017-11-26T17:01:55.858Z,5.60
2017-11-26T17:04:24.982Z,4.93
2017-11-26T17:06:53.302Z,9.93
2017-11-26T17:09:21.608Z,7.93
2017-11-26T17:11:49.934Z,5.00
2017-11-26T17:14:18.235Z,4.93
2017-11-26T17:16:46.559Z,4.50
2017-11-26T17:19:14.873Z,5.37
2017-11-26T17:21:43.182Z,7.23
2017-11-26T17:24:11.498Z,8.50
2017-11-26T17:26:39.823Z,5.10
2017-11-26T17:29:08.195Z,7.20
2017-11-26T17:31:36.547Z,8.17
2017-11-26T17:34:04.869Z,6.57
2017-11-26T17:36:33.204Z,6.50
2017-11-26T17:39:01.547Z,6.80
2017-11-26T17:41:30.645Z,6.17
2017-11-26T17:43:58.970Z,6.70
2017-11-26T17:46:27.286Z,7.83
2017-11-26T17:48:55.618Z,5.10
2017-11-26T17:51:23.997Z,4.27
2017-11-26T17:53:52.927Z,7.17
2017-11-26T17:56:21.241Z,4.80
2017-11-26T17:58:50.356Z,4.63
2017-11-26T18:01:18.671Z,5.30
2017-11-26T18:03:46.973Z,9.60
2017-11-26T18:06:15.307Z,5.97
2017-11-26T18:08:43.631Z,8.03
2017-11-26T18:11:12.716Z,4.40
2017-11-26T18:13:41.034Z,7.63
2017-11-26T18:16:10.154Z,7.20
2017-11-26T18:18:38.488Z,7.00
2017-11-26T18:21:07.576Z,6.27
2017-11-26T18:23:36.645Z,6.43
2017-11-26T18:26:04.981Z,8.87
2017-11-26T18:28:33.276Z,10.23
2017-11-26T18:31:01.610Z,11.60
2017-11-26T18:33:30.675Z,9.43
2017-11-26T18:35:59.039Z,10.00
2017-11-26T18:38:27.350Z,9.30
2017-11-26T18:40:55.652Z,11.87
2017-11-26T18:43:24.001Z,18.07
2017-11-26T18:45:52.296Z,8.97
2017-11-26T18:48:21.380Z,13.00
2017-11-26T18:50:50.471Z,13.03
2017-11-26T18:53:18.769Z,9.73
2017-11-26T18:55:47.107Z,13.93
2017-11-26T18:58:15.423Z,10.10
2017-11-26T19:00:44.523Z,11.33
2017-11-26T19:03:12.828Z,9.90
2017-11-26T19:05:41.142Z,17.47
2017-11-26T19:08:09.461Z,12.23
2017-11-26T19:10:37.758Z,10.10
2017-11-26T19:13:06.109Z,12.97
2017-11-26T19:15:34.475Z,10.70
2017-11-26T19:18:03.547Z,11.33
2017-11-26T19:20:31.886Z,17.70
2017-11-26T19:23:00.197Z,10.97
2017-11-26T19:25:28.535Z,13.60
2017-11-26T19:27:56.886Z,18.00
2017-11-26T19:30:25.979Z,11.60
2017-11-26T19:32:55.061Z,17.47
2017-11-26T19:35:24.137Z,10.27
2017-11-26T19:37:52.480Z,10.27
2017-11-26T19:40:20.774Z,10.17
2017-11-26T19:42:49.070Z,12.70
2017-11-26T19:45:17.378Z,20.10
2017-11-26T19:47:46.459Z,16.80
2017-11-26T19:50:15.551Z,11.90
2017-11-26T19:52:44.645Z,10.80
2017-11-26T19:55:12.961Z,15.97
2017-11-26T19:57:41.266Z,9.00
2017-11-26T20:00:09.563Z,10.33
2017-11-26T20:02:37.898Z,12.37
2017-11-26T20:05:06.240Z,11.70
2017-11-26T20:07:35.364Z,12.90
2017-11-26T20:10:03.730Z,9.40
2017-11-26T20:12:32.795Z,13.53
2017-11-26T20:15:01.132Z,10.80
2017-11-26T20:17:29.429Z,8.10
2017-11-26T20:19:57.734Z,11.00
2017-11-26T20:22:26.058Z,12.20
2017-11-26T20:24:54.374Z,12.40
2017-11-26T20:27:22.729Z,9.50
2017-11-26T20:29:51.024Z,7.67
2017-11-26T20:32:19.347Z,7.00
2017-11-26T20:34:48.405Z,7.47
2017-11-26T20:37:16.710Z,12.60
2017-11-26T20:39:45.833Z,10.27
2017-11-26T20:42:14.143Z,12.20
2017-11-26T20:44:42.457Z,11.83
2017-11-26T20:47:11.523Z,11.40
2017-11-26T20:49:39.854Z,8.43
2017-11-26T20:52:08.193Z,14.50
2017-11-26T20:54:36.499Z,16.23
2017-11-26T20:57:04.832Z,11.43
2017-11-26T20:59:33.154Z,11.80
2017-11-26T21:02:02.226Z,9.90
2017-11-26T21:04:30.520Z,13.83
2017-11-26T21:06:59.644Z,13.80
2017-11-26T21:09:27.950Z,16.73
2017-11-26T21:11:56.259Z,12.00
2017-11-26T21:14:25.360Z,13.57
2017-11-26T21:16:54.438Z,11.30
2017-11-26T21:19:22.796Z,12.50
2017-11-26T21:21:51.148Z,11.10
2017-11-26T21:24:19.456Z,10.77
2017-11-26T21:26:47.835Z,14.70
2017-11-26T21:29:16.143Z,13.00
2017-11-26T21:31:44.473Z,11.80
2017-11-26T21:34:12.783Z,14.10
2017-11-26T21:36:41.102Z,14.90
2017-11-26T21:39:09.410Z,12.53
2017-11-26T21:41:37.769Z,14.33
2017-11-26T21:44:06.086Z,15.93
2017-11-26T21:46:34.413Z,15.60
2017-11-26T21:49:02.745Z,14.40
2017-11-26T21:51:31.059Z,17.83
2017-11-26T21:53:59.390Z,14.50
2017-11-26T21:56:27.699Z,22.20
2017-11-26T21:58:56.807Z,14.93
2017-11-26T22:01:25.189Z,11.70
2017-11-26T22:03:53.490Z,12.93
2017-11-26T22:06:21.804Z,19.13
2017-11-26T22:08:50.143Z,16.83
2017-11-26T22:11:18.467Z,19.47
2017-11-26T22:13:46.787Z,15.63
2017-11-26T22:16:15.142Z,20.50
2017-11-26T22:18:44.216Z,19.10
2017-11-26T22:21:12.528Z,15.77
2017-11-26T22:23:40.846Z,16.30
2017-11-26T22:26:09.841Z,14.20
2017-11-26T22:28:38.239Z,16.70
2017-11-26T22:31:06.547Z,18.80
2017-11-26T22:33:35.638Z,19.77
2017-11-26T22:36:04.748Z,15.37
2017-11-26T22:38:33.086Z,13.57
2017-11-26T22:41:01.411Z,19.20
2017-11-26T22:43:29.730Z,23.40
2017-11-26T22:45:58.038Z,16.17
2017-11-26T22:48:27.187Z,19.40
2017-11-26T22:50:56.302Z,13.00
2017-11-26T22:53:24.631Z,15.50
2017-11-26T22:55:52.934Z,25.67
2017-11-26T22:58:21.246Z,13.23
2017-11-26T23:00:49.545Z,14.70
2017-11-26T23:03:19.448Z,16.73
2017-11-26T23:05:48.514Z,16.33
2017-11-26T23:08:16.856Z,14.70
2017-11-26T23:10:45.177Z,14.80
2017-11-26T23:13:13.492Z,16.27
2017-11-26T23:15:41.818Z,11.93
2017-11-26T23:18:10.133Z,15.00
2017-11-26T23:20:39.238Z,24.07
2017-11-26T23:23:08.298Z,15.10
2017-11-26T23:25:36.620Z,19.53
2017-11-26T23:28:04.944Z,12.30
2017-11-26T23:30:33.258Z,17.40
2017-11-26T23:33:02.338Z,26.70
2017-11-26T23:35:30.662Z,16.13
2017-11-26T23:37:58.978Z,14.47
2017-11-26T23:40:27.300Z,13.37
2017-11-26T23:42:55.635Z,14.90
2017-11-26T23:45:23.943Z,17.03
2017-11-26T23:47:53.002Z,23.37
2017-11-26T23:50:21.335Z,21.93
2017-11-26T23:52:49.665Z,21.57
2017-11-26T23:55:17.984Z,17.60
2017-11-26T23:57:46.309Z,20.80
